DABB

Annaba Airport

Annabah, Algeria

DABB 110900Z 24003KT CAVOK 17/09 Q1007

Observed Flight Rules
Dec-11 @ 09:00 UTC (26 minutes ago) Visual Flight Rules
Wind Visibility Clouds
240° at 3 knots 10,000+ meters
  • Clear skies
Temperatures Readings
Current 17°C / 63°F
Dewpoint 9°C / 48°F
Humidity 59%
Altimeter 29.73" Hg
Pressure 1007 hPa
Elevation 4
Observed Flight Rules
Dec-11 @ 09:00 UTC
(26 minutes ago)
VFR
Wind Visibility
240° at 3 knots 10,000+ meters
Clouds
  • Clear skies
Temperature Dewpoint
17°C / 63°F 9°C / 48°F
Humidity Altimeter Pressure
59% 29.73" Hg 1007 hPa